Weather observations for the past three days for
Washington, Washington-Wilkes County Airport
Imperial (Metric)
Date Time (edt) Wind (mph) Vis. (mi.) Weather Sky Cond. Temperature (ºF) Relative Humidity Wind Chill (°F) Heat Index (°F) Pressure Precipitation (in)
Air Dwpt 6 hour altimeter (in) sea level (mb) 1 hr 3 hr 6 hr
Max. Min.
09 19:55 W 5 10.00 Fair CLR 68 64.6 71.2 68 89% 29.9 0.0
09 19:35 W 3 10.00 Fair CLR 68.7 64.4 86% 29.9 0.0
09 19:15 W 6 10.00 Fair CLR 69.3 63.9 83% 29.89 0.0
09 18:55 SW 6 10.00 Fair CLR 69.6 63.1 80% 29.89 0.0
09 18:35 W 6 10.00 Fair CLR 69.8 63 79% 29.89 0.0
09 18:15 SW 8 10.00 Fair CLR 70.3 62.4 76% 29.89 0.0
09 17:55 W 9 10.00 Partly Cloudy SCT024 70.7 62.4 75% 29.88 0.0
09 17:35 SW 7 10.00 Partly Cloudy SCT022 70.7 62.8 76% 29.88 0.0
09 17:15 W 7 10.00 Partly Cloudy SCT022 70.3 62.6 77% 29.88 0.0
09 16:55 W 7 10.00 Fair CLR 70.3 62.2 76% 29.88 0.0
09 16:35 SW 9 10.00 Mostly Cloudy SCT020 BKN029 70 62.4 77% 29.89 0.0
09 16:15 W 9 10.00 Overcast SCT022 OVC029 70.2 62.2 76% 29.9 0.0
09 15:55 W 7 10.00 Overcast SCT022 OVC029 70 61.7 75% 29.9 0.0
09 15:35 W 10 10.00 Overcast SCT020 OVC029 70.7 61.9 74% 29.9 0.0
09 15:15 W 7 10.00 Overcast BKN020 OVC027 70.7 63.1 77% 29.91 0.0
09 14:55 SW 8 10.00 Overcast SCT018 OVC025 69.4 63 80% 29.91 0.0
09 14:35 W 8 10.00 Overcast SCT018 OVC025 69.3 63.1 81% 29.92 0.0
09 14:15 W 10 10.00 Overcast OVC023 69.6 62.8 79% 29.91 0.0
09 13:55 W 9 10.00 Overcast OVC022 69.1 63 69.4 60.1 81% 29.91 0.0
09 13:35 W 9 10.00 Overcast OVC018 69.1 63 81% 29.91 0.0
09 13:15 W 6 10.00 Overcast BKN018 OVC023 68.7 63 82% 29.91 0.0
09 12:55 W 8 10.00 Overcast OVC018 68.9 62.8 81% 29.92 0.0
09 12:35 W 7 10.00 Overcast OVC018 68.4 63 83% 29.91 0.0
09 12:15 SW 8 10.00 Overcast OVC018 68.2 63.1 84% 29.92 0.0
09 11:55 W 7 10.00 Overcast OVC016 68 63.1 85% 29.92 0.0
09 11:35 W 9 10.00 Mostly Cloudy BKN014 67.8 62.6 83% 29.93 0.0
09 11:15 SW 6 10.00 Mostly Cloudy BKN014 67.3 63 86% 29.92 0.0
09 10:55 SW 7 10.00 Overcast OVC014 66.2 62.6 88% 29.93 0.0
09 10:35 SW 9 10.00 Mostly Cloudy BKN012 BKN080 66.4 62.8 88% 29.93 0.0
09 10:15 SW 8 10.00 Partly Cloudy SCT012 66.4 62.8 88% 29.93 0.0
09 09:55 SW 8 10.00 Partly Cloudy SCT012 SCT100 SCT120 65.1 62.6 92% 29.92 0.0
09 09:35 SW 6 10.00 Overcast OVC110 64.2 62.6 95% 29.93 0.0
09 09:15 S 5 10.00 Mostly Cloudy BKN110 63.3 62.1 96% 29.92 0.0
09 08:55 SW 5 10.00 Partly Cloudy SCT100 62.6 0 0% 29.93 0.0
09 08:35 SW 7 10.00 Fair CLR 60.8 0 0% 29.93 0.0
09 08:15 S 7 10.00 Partly Cloudy SCT036 60.8 0 0% 29.92 0.0
09 07:55 S 5 10.00 Mostly Cloudy BKN038 60.8 0 60.4 56.1 0% 29.91 0.0
09 07:35 S 5 10.00 Overcast OVC042 59 0 0% 29.91 0.0
09 07:15 Calm 10.00 Mostly Cloudy BKN042 BKN060 57.2 0 0% 29.92 0.0
09 06:55 SW 3 10.00 Overcast BKN042 BKN060 OVC065 57.2 0 0% 29.93 0.0
09 06:35 Calm 10.00 Mostly Cloudy SCT044 BKN060 57.2 0 0% 29.93 0.0
09 06:15 SW 3 10.00 Partly Cloudy SCT050 SCT060 57.2 0 0% 29.92 0.0
09 05:55 SW 5 10.00 Mostly Cloudy BKN050 57.2 0 0% 29.91 0.0
09 05:35 SW 3 10.00 Partly Cloudy SCT060 57.2 0 0% 29.91 0.0
09 05:15 S 5 10.00 Fair CLR 57.2 0 0% 29.9 0.0
09 04:55 S 3 10.00 Fair CLR 57.2 0 0% 29.9 0.0
09 04:35 S 5 10.00 Fair CLR 57.2 0 0% 29.89 0.0
09 04:15 Calm 10.00 Fair CLR 57.2 0 0% 29.89 0.0
09 03:55 Calm 10.00 Fair CLR 57.2 0 0% 29.9 0.0
09 03:35 Calm 10.00 Fair CLR 57.2 0 0% 29.9 0.0
09 03:15 Calm 10.00 Partly Cloudy SCT120 59 0 0% 29.9 0.0
09 02:55 Calm 10.00 Partly Cloudy SCT120 59 59 100% 29.92 0.0
09 02:35 Calm 10.00 Partly Cloudy SCT120 59 59 100% 29.92 0.0
09 02:15 S 3 10.00 Fair CLR 60.1 59.2 97% 29.93 0.0
09 01:55 Calm 10.00 Fair CLR 59 0 66.6 59.2 0% 29.94 0.0
09 01:35 Calm 10.00 Fair CLR 59 0 0% 29.95 0.0
09 01:15 S 3 10.00 Fair CLR 59 0 0% 29.96 0.0
09 00:55 Calm 10.00 Partly Cloudy SCT090 59.9 59.2 97% 29.96 0.0
09 00:35 Calm 10.00 Partly Cloudy SCT090 60.1 59.2 97% 29.97 0.0
09 00:15 S 3 10.00 Fair CLR 59 59 100% 29.96 0.0
08 23:55 Calm 10.00 Fair CLR 60.8 60.8 100% 29.97 0.0
08 23:35 Calm 10.00 Fair CLR 60.6 59.7 97% 29.98 0.0
08 23:15 Calm 10.00 Fair CLR 61.7 58.3 89% 29.98 0.0
08 22:55 Calm 10.00 Fair CLR 61.9 57.7 86% 29.99 0.0
08 22:35 Calm 10.00 Fair CLR 63 55.8 77% 29.98 0.0
08 22:15 S 3 10.00 Fair CLR 63 55.8 77% 29.98 0.0
08 21:55 S 5 10.00 Fair CLR 63.1 55.8 77% 29.98 0.0
08 21:35 S 5 10.00 Fair CLR 63.9 55.2 74% 29.98 0.0
08 21:15 S 3 10.00 Fair CLR 64 55 73% 29.98 0.0
08 20:55 S 5 10.00 Fair CLR 64.6 54.5 70% 29.97 0.0
08 20:35 S 5 10.00 Fair CLR 65.3 53.8 66% 29.97 0.0
08 20:15 SW 5 10.00 Fair CLR 66.2 53.8 64% 29.97 0.0
08 19:55 SW 5 10.00 Fair CLR 66.7 53.8 73.4 66.6 63% 29.97 0.0
08 19:35 S 5 10.00 Fair CLR 67.5 53.8 62% 29.96 0.0
08 19:15 S 5 10.00 Fair CLR 68.2 52.9 58% 29.95 0.0
08 18:55 S 6 10.00 Fair CLR 68.7 52.5 56% 29.96 0.0
08 18:35 S 8 10.00 Fair CLR 69.6 51.8 53% 29.97 0.0
08 18:15 S 3 10.00 Fair CLR 70.3 52.2 53% 29.96 0.0
08 17:55 S 5 10.00 Fair CLR 70.7 51.1 50% 29.96 0.0
08 17:35 S 6 10.00 Fair CLR 71.2 50.7 48% 29.96 0.0
08 17:15 Calm 10.00 Fair CLR 71.4 50 47% 29.96 0.0
08 16:55 Calm 10.00 Fair CLR 71.8 48.4 44% 29.96 0.0
08 16:35 SW 3 10.00 Fair CLR 72.3 47.8 42% 29.95 0.0
08 16:15 S 3 10.00 Fair CLR 72.5 48.6 43% 29.97 0.0
08 15:55 E 3 10.00 Partly Cloudy SCT050 71.8 49.3 45% 29.97 0.0
08 15:35 NE 5 10.00 Fair CLR 72 49.8 46% 29.98 0.0
08 15:15 N 5 10.00 Fair CLR 72.3 49.3 44% 29.99 0.0
08 14:55 Calm 10.00 Fair CLR 71.6 49.3 45% 29.99 0.0
08 14:35 S 5 10.00 Fair CLR 70.9 48.7 46% 30.01 0.0
08 14:15 S 6 10.00 Fair CLR 71.2 49.1 46% 30.02 0.0
08 13:55 NW 3 10.00 Fair CLR 70.2 48.7 70.7 56.7 47% 30.03 0.0
08 13:35 S 7 10.00 Fair CLR 70.3 48.9 47% 30.03 0.0
08 13:15 S 3 10.00 Fair CLR 69.3 49.1 49% 30.03 0.0
08 12:55 SE 5 10.00 Fair CLR 68.7 47.8 47% 30.05 0.0
08 12:35 E 5 10.00 Fair CLR 68.4 48.7 50% 30.06 0.0
08 12:15 S 6 10.00 Partly Cloudy SCT040 68.2 49.8 52% 30.07 0.0
08 11:55 SE 10 10.00 Partly Cloudy SCT038 67.8 50.5 54% 30.07 0.0
08 11:35 S 7 10.00 Partly Cloudy SCT036 68 50.9 54% 30.07 0.0
08 11:15 E 6 10.00 Fair CLR 67.1 50.9 56% 30.08 0.0
08 10:55 E 7 10.00 Fair CLR 65.8 50.9 59% 30.08 0.0
08 10:35 SE 6 10.00 Fair CLR 65.1 50.9 60% 30.08 0.0
08 10:15 E 5 10.00 Fair CLR 64.8 51.4 62% 30.08 0.0
08 09:55 E 6 10.00 Fair CLR 64 50.9 63% 30.09 0.0
08 09:35 E 6 10.00 Fair CLR 63.1 51.1 65% 30.08 0.0
08 09:15 E 6 10.00 Fair CLR 63.5 52.9 69% 30.08 0.0
08 08:55 E 6 10.00 Fair CLR 62.2 53.4 73% 30.07 0.0
08 08:35 E 5 10.00 Fair CLR 60.6 55 82% 30.07 0.0
08 08:15 NE 6 10.00 Fair CLR 58.8 55.8 90% 30.05 0.0
08 07:55 Calm 10.00 Fair CLR 56.7 55.4 57.9 51.6 96% 30.04 0.0
08 07:35 NE 3 10.00 Fair CLR 53.6 0 0% 30.03 0.0
08 07:15 N 3 10.00 Fair CLR 51.8 0 0% 30.02 0.0
08 06:55 Calm 10.00 Fair CLR 51.8 0 0% 30.02 0.0
08 06:35 Calm 10.00 Partly Cloudy SCT033 51.8 0 0% 30.01 0.0
08 06:15 Calm 10.00 Partly Cloudy SCT033 51.8 0 0% 30 0.0
08 05:55 Calm 10.00 Partly Cloudy SCT027 53.6 0 0% 29.99 0.0
08 05:35 N 3 10.00 Fair CLR 53.6 0 0% 29.98 0.0
08 05:15 Calm 10.00 Fair CLR 53.6 0 0% 29.98 0.0
08 04:55 Calm 10.00 Fair CLR 53.6 0 0% 29.97 0.0
08 04:35 NW 5 10.00 Fair CLR 53.6 0 0% 29.97 0.0
08 04:15 Calm 10.00 Fair CLR 53.6 0 0% 29.97 0.0
08 03:55 NE 3 10.00 Fair CLR 53.6 0 0% 29.97 0.0
08 03:35 Calm 10.00 Fair CLR 55.4 0 0% 29.98 0.0
08 03:15 Calm 10.00 Fair CLR 55.4 55.4 100% 29.97 0.0
08 02:55 NW 5 10.00 Fair CLR 56.8 54.3 91% 29.97 0.0
08 02:35 N 6 10.00 Fair CLR 57.2 54.3 90% 29.97 0.0
08 02:15 NW 8 10.00 Fair CLR 57.4 54.5 90% 29.97 0.0
08 01:55 NW 8 10.00 Fair CLR 57.9 54.1 70.3 57.9 87% 29.97 0.0
08 01:35 NW 7 10.00 Fair CLR 58.3 54.3 87% 29.97 0.0
08 01:15 NW 7 10.00 Fair CLR 58.8 54 84% 29.97 0.0
08 00:55 NW 6 10.00 Fair CLR 59.4 53.8 82% 29.97 0.0
08 00:35 NW 6 10.00 Fair CLR 59.9 53.8 80% 29.96 0.0
08 00:15 NW 8 10.00 Fair CLR 60.3 53.8 79% 29.96 0.0
07 23:55 NW 9 10.00 Fair CLR 60.6 54 79% 29.96 0.0
07 23:35 NW 7 10.00 Fair CLR 61.7 53.6 75% 29.95 0.0
07 23:15 NW 7 10.00 Fair CLR 62.2 53.6 74% 29.96 0.0
07 22:55 NW 7 10.00 Fair CLR 61.9 54.1 76% 29.96 0.0
07 22:35 NW 8 10.00 Fair CLR 63.1 54 72% 29.95 0.0
07 22:15 NW 8 10.00 Fair CLR 63.9 54 70% 29.94 0.0
07 21:55 NW 9 10.00 Fair CLR 64.8 54.3 69% 29.94 0.0
07 21:35 W 9 10.00 Fair CLR 65.8 55.2 69% 29.93 0.0
07 21:15 W 12 10.00 Fair CLR 66.2 57.2 73% 29.92 0.0
07 20:55 W 10 10.00 Fair CLR 66.9 57.4 72% 29.91 0.0
07 20:35 W 14 10.00 Fair CLR 68 57.4 69% 29.9 0.0
07 20:15 W 14 G 26 10.00 Fair CLR 69.3 57.9 67% 29.89 0.0
07 19:55 NW 15 G 21 10.00 Fair CLR 70.7 59 77.9 70.5 67% 29.88 0.0
07 19:35 W 14 10.00 Partly Cloudy SCT035 72.1 59.4 64% 29.87 0.0
07 19:15 W 16 G 21 10.00 Partly Cloudy SCT035 73.6 60.3 63% 29.86 0.0
07 18:55 W 15 G 24 10.00 Fair CLR 74.3 60.6 62% 29.85 0.0
07 18:35 W 15 G 21 10.00 Fair CLR 75.2 61.2 62% 77 29.85 0.0
07 18:15 W 17 G 25 10.00 Partly Cloudy SCT036 75.6 61.3 61% 78 29.85 0.0
07 17:55 W 14 10.00 Mostly Cloudy BKN036 BKN042 76.1 63.3 65% 78 29.85 0.0
07 17:35 W 18 G 25 10.00 Partly Cloudy SCT032 SCT040 75.4 63.1 66% 77 29.85 0.0
07 17:15 W 17 G 23 10.00 Mostly Cloudy SCT034 BKN040 75.7 62.6 64% 78 29.84 0.0
07 16:35 W 15 G 22 10.00 Mostly Cloudy SCT033 SCT041 BKN048 76.6 63.1 63% 78 29.84 0.0
07 16:15 W 15 G 21 10.00 Overcast SCT031 BKN037 OVC046 75.4 63.9 68% 77 29.84 0.0
07 15:55 W 15 G 23 10.00 Overcast SCT029 SCT036 OVC046 75.6 63.3 66% 77 29.84 0.0
07 15:35 NW 18 G 25 10.00 Overcast BKN029 BKN037 OVC047 75 64.4 70% 77 29.85 0.0
07 15:15 NW 14 G 18 10.00 Overcast SCT029 BKN036 OVC049 77.5 65.5 67% 79 29.85 0.0
07 14:55 NW 12 10.00 Overcast SCT025 OVC034 75.4 65.1 71% 77 29.85 0.0
07 14:35 W 13 G 20 10.00 Overcast BKN025 OVC032 74.7 65.3 73% 29.85 0.0
07 14:15 NW 15 G 21 10.00 Mostly Cloudy SCT023 SCT027 BKN032 75.9 65.3 70% 78 29.85 0.0
07 13:55 W 10 G 16 10.00 Mostly Cloudy BKN021 BKN028 BKN034 74.1 67.6 75 65.1 80% 29.85 0.0
07 13:35 W 13 10.00 Mostly Cloudy BKN019 BKN026 72.9 65.8 79% 29.86 0.0
07 13:15 W 9 10.00 Mostly Cloudy BKN014 BKN021 BKN090 72.3 67.8 86% 29.86 0.0
07 12:55 W 7 10.00 Mostly Cloudy BKN011 BKN065 BKN085 70.5 69.1 95% 29.86 0.0
07 12:35 W 6 10.00 Mostly Cloudy BKN011 BKN014 BKN085 69.4 68.4 96% 29.85 0.0
07 12:15 Calm 10.00 Overcast BKN009 BKN055 OVC070 68 0 0% 29.85 0.0
07 11:55 Calm 10.00 Overcast BKN007 BKN060 OVC070 68 0 0% 29.86 0.0
07 11:35 SW 3 10.00 Light Rain BKN005 BKN016 OVC065 66.2 0 0% 29.87 0.0
07 11:15 W 6 7.00 Light Rain SCT007 BKN046 OVC065 66.2 0 0% 29.88 0.0
07 10:55 NW 5 10.00 Rain SCT005 SCT029 OVC044 66.2 0 0% 29.88 0.0
07 10:35 Calm 10.00 Overcast SCT005 OVC044 66.2 0 0% 29.86 0.0
07 10:15 NW 3 10.00 Overcast SCT005 SCT013 OVC044 66.2 0 0% 29.86 0.0
07 09:55 N 5 7.00 Light Rain BKN005 BKN015 OVC050 66.2 0 0% 29.87 0.0
07 09:35 NW 13 G 22 1.75 Rain Fog/Mist OVC007 66.2 0 0% 29.87 0.0
07 09:15 W 12 7.00 Overcast OVC009 68 0 0% 29.85 0.0
07 08:55 SW 10 10.00 Overcast OVC009 68 0 0% 29.84 0.0
07 08:35 SW 9 10.00 Overcast OVC007 68 0 0% 29.84 0.0
07 08:15 SW 10 10.00 Overcast OVC007 66.2 0 0% 29.84 0.0
07 07:55 SW 9 10.00 Overcast OVC007 66.2 0 67.5 66 0% 29.84 0.0 0.01
07 07:35 S 6 10.00 Overcast BKN009 OVC012 66.2 0 0% 29.81 0.0
07 07:15 S 7 10.00 Overcast BKN009 OVC012 66.2 0 0% 29.81 0.0
07 06:55 S 8 10.00 Overcast OVC006 66.2 0 0% 29.84 0.0
07 06:35 S 5 G 16 7.00 Light Rain OVC006 66.2 0 0% 29.81 0.0
07 06:15 SW 12 10.00 Rain OVC006 66.2 0 0% 29.87 0.0
07 05:55 S 9 10.00 Overcast OVC006 66.2 0 0% 29.86 0.0
07 05:35 SW 10 10.00 Overcast BKN009 OVC013 66.2 0 0% 29.87 0.0
07 05:15 SW 7 10.00 Light Rain BKN007 OVC012 66.2 0 0% 29.87 0.0
07 04:55 SW 6 10.00 Overcast OVC007 68 0 0% 29.87 0.0 0.01
07 04:35 W 3 10.00 Overcast OVC009 68 0 0% 29.87 0.0
07 04:15 S 5 10.00 Light Rain OVC009 66.2 0 0% 29.87 0.0
07 03:55 S 5 7.00 Light Rain BKN011 BKN027 BKN120 66.2 0 0% 29.86 0.0
07 03:35 SE 3 5.00 Light Rain BKN013 BKN046 BKN120 66.2 0 0% 29.87 0.0
07 03:15 Calm 10.00 Light Drizzle SCT015 SCT050 BKN085 66.2 0 0% 29.87 0.0
07 02:55 Calm 7.00 Light Rain SCT021 SCT055 BKN110 66.2 0 0% 29.88 0.0 0.01
07 02:35 Calm 4.00 Rain SCT022 SCT060 OVC110 66.2 0 0% 29.9 0.0 0.01
07 02:15 NW 3 7.00 Heavy Rain SCT028 SCT070 BKN080 66.2 0 0% 29.91 0.0 0.01
07 01:55 W 5 10.00 Light Rain SCT003 SCT035 SCT110 66.2 0 80.8 66.2 0% 29.92 0.0 0.01 0.01
07 01:35 Calm 10.00 Mostly Cloudy BKN003 BKN090 66.2 0 0% 29.89 0.0
07 01:15 SE 5 10.00 Overcast OVC003 66.2 0 0% 29.89 0.0
07 00:55 E 3 10.00 Mostly Cloudy BKN005 BKN041 66.2 0 0% 29.91 0.0
07 00:35 Calm 10.00 Mostly Cloudy BKN005 BKN047 66.2 0 0% 29.93 0.0
07 00:15 Calm 10.00 Overcast BKN005 OVC047 66.2 0 0% 29.93 0.0
06 23:55 E 5 10.00 Overcast BKN005 BKN010 OVC049 68 0 0% 29.93 0.0
06 23:35 NE 6 10.00 Overcast OVC005 68 0 0% 29.93 0.0
06 23:15 NE 6 10.00 Overcast OVC005 69.8 0 0% 29.94 0.0
06 22:55 N 6 10.00 Overcast SCT005 OVC048 69.8 0 0% 29.95 0.0
06 22:35 N 6 10.00 Overcast OVC046 71.6 71.6 100% 29.93 0.0
06 22:15 N 5 10.00 Overcast OVC048 73.6 70.7 91% 29.93 0.0
06 21:55 NW 5 10.00 Overcast OVC050 74.7 68 80% 29.91 0.0
06 21:35 W 7 10.00 Thunderstorm Light Rain in Vicinity OVC048 76.6 65.8 69% 78 29.91 0.0
06 21:15 SW 10 10.00 Overcast BKN048 OVC060 79.2 63.3 58% 81 29.89 0.0
06 20:55 SW 7 10.00 Mostly Cloudy BKN060 79.2 63.7 59% 81 29.89 0.0
06 20:35 SW 6 10.00 Fair CLR 79.5 63.5 58% 81 29.88 0.0
06 20:15 SW 8 10.00 Mostly Cloudy SCT050 SCT060 BKN095 80.1 63.7 57% 82 29.88 0.0
Date Time (edt) Wind (mph) Vis. (mi.) Weather Sky Cond. Air Dwpt Max. Min. Relative Humidity Wind Chill (°F) Heat Index (°F) altimeter (in) sea level (mb) 1 hr 3 hr 6 hr
6 hour
Temperature (ºF) Pressure Precipitation (in)